Time;durP1;ratioP1;P1;durP2;ratioP2;P2;SDS_P1;SDS_P2;PMS_P1;PMS_P2;Temp;Humidity;BMP_temperature;BMP_pressure;BME280_temperature;BME280_humidity;BME280_pressure;Samples;Min_cycle;Max_cycle;Signal;HPM_P1;HPM_P2
2023/06/07 00:02:26;;;;;;;23.60;9.52;;;;;;;;;;5060483;28;25112;-71
2023/06/07 00:04:52;;;;;;;22.65;9.43;;;;;;;;;;5062384;28;25147;-72
2023/06/07 00:07:18;;;;;;;19.35;9.43;;;;;;;;;;5063700;28;25076;-72
2023/06/07 00:09:44;;;;;;;22.85;10.18;;;;;;;;;;5063080;28;25150;-71
2023/06/07 00:12:10;;;;;;;21.45;8.95;;;;;;;;;;5060942;28;25116;-72
2023/06/07 00:14:36;;;;;;;19.40;8.75;;;;;;;;;;5044081;28;25088;-73
2023/06/07 00:17:02;;;;;;;17.92;8.88;;;;;;;;;;5061450;28;25101;-75
2023/06/07 00:19:29;;;;;;;21.98;9.15;;;;;;;;;;5061618;28;25072;-74
2023/06/07 00:21:55;;;;;;;16.02;9.15;;;;;;;;;;5064200;28;25055;-72
2023/06/07 00:24:21;;;;;;;24.95;9.23;;;;;;;;;;5063371;28;25053;-72
2023/06/07 00:26:48;;;;;;;25.02;8.93;;;;;;;;;;5048932;28;25090;-74
2023/06/07 00:29:17;;;;;;;18.15;9.20;;;;;;;;;;5061661;28;25073;-73
2023/06/07 00:31:43;;;;;;;19.98;9.32;;;;;;;;;;5062496;28;25143;-72
2023/06/07 00:34:10;;;;;;;15.30;9.02;;;;;;;;;;5061519;28;25099;-72
2023/06/07 00:36:36;;;;;;;20.95;8.80;;;;;;;;;;5063626;28;25155;-71
2023/06/07 00:39:02;;;;;;;19.10;9.63;;;;;;;;;;5062743;28;25086;-73
2023/06/07 00:41:29;;;;;;;22.65;10.02;;;;;;;;;;5064837;28;25105;-73
2023/06/07 00:43:55;;;;;;;18.70;9.07;;;;;;;;;;5061881;28;25047;-73
2023/06/07 00:46:22;;;;;;;19.55;8.98;;;;;;;;;;5065583;28;25074;-73
2023/06/07 00:48:52;;;;;;;23.50;10.52;;;;;;;;;;5060765;28;25054;-73
2023/06/07 00:51:18;;;;;;;17.98;9.35;;;;;;;;;;5061552;28;25117;-73
2023/06/07 00:53:45;;;;;;;20.30;8.95;;;;;;;;;;5060933;28;25158;-73
2023/06/07 00:56:11;;;;;;;20.77;9.00;;;;;;;;;;5060307;28;25088;-74
2023/06/07 00:58:38;;;;;;;19.98;9.48;;;;;;;;;;5061200;28;25057;-71
2023/06/07 01:01:04;;;;;;;17.85;9.30;;;;;;;;;;5060728;28;25118;-71
2023/06/07 01:03:30;;;;;;;18.27;9.13;;;;;;;;;;5059173;28;25111;-73
2023/06/07 01:05:58;;;;;;;17.08;8.85;;;;;;;;;;5063174;28;25056;-71
2023/06/07 01:08:25;;;;;;;21.23;9.80;;;;;;;;;;5058991;28;25049;-71
2023/06/07 01:10:51;;;;;;;18.50;8.65;;;;;;;;;;5064857;28;25071;-72
2023/06/07 01:13:18;;;;;;;19.10;8.20;;;;;;;;;;5033574;28;25062;-71
2023/06/07 01:15:44;;;;;;;23.25;9.77;;;;;;;;;;5046736;28;25078;-72
2023/06/07 01:18:10;;;;;;;21.13;9.30;;;;;;;;;;5062061;28;25099;-74
2023/06/07 01:20:41;;;;;;;21.02;11.30;;;;;;;;;;5063466;28;25087;-73
2023/06/07 01:23:09;;;;;;;24.88;10.38;;;;;;;;;;5059840;28;25098;-72
2023/06/07 01:25:35;;;;;;;19.70;9.55;;;;;;;;;;5061742;28;25057;-72
2023/06/07 01:28:01;;;;;;;24.60;9.32;;;;;;;;;;5061827;28;25150;-74
2023/06/07 01:30:31;;;;;;;25.15;10.25;;;;;;;;;;5047626;28;25065;-72
2023/06/07 01:32:58;;;;;;;22.27;9.00;;;;;;;;;;5060899;28;25075;-72
2023/06/07 01:35:24;;;;;;;16.08;8.52;;;;;;;;;;5060857;28;25068;-72
2023/06/07 01:37:51;;;;;;;22.15;8.38;;;;;;;;;;5061151;28;25063;-72
2023/06/07 01:40:17;;;;;;;20.63;9.77;;;;;;;;;;5061176;28;25084;-72
2023/06/07 01:42:44;;;;;;;21.38;9.18;;;;;;;;;;5059918;28;25099;-73
2023/06/07 01:45:10;;;;;;;23.98;9.45;;;;;;;;;;5061467;28;25067;-72
2023/06/07 01:47:37;;;;;;;18.13;8.20;;;;;;;;;;5059016;28;25067;-72
2023/06/07 01:50:04;;;;;;;20.25;8.70;;;;;;;;;;5048838;28;25058;-71
2023/06/07 01:52:30;;;;;;;15.63;8.88;;;;;;;;;;5060794;28;25095;-73
2023/06/07 01:54:56;;;;;;;19.73;9.10;;;;;;;;;;5061901;28;25151;-73
2023/06/07 01:57:28;;;;;;;19.67;8.70;;;;;;;;;;5060450;28;25128;-73
2023/06/07 02:00:05;;;;;;;17.55;7.93;;;;;;;;;;5063195;28;25052;-73
2023/06/07 02:02:37;;;;;;;18.15;8.43;;;;;;;;;;5056569;28;25055;-73
2023/06/07 02:05:09;;;;;;;16.63;8.93;;;;;;;;;;5061022;28;25064;-73
2023/06/07 02:07:40;;;;;;;15.35;7.00;;;;;;;;;;5060656;28;25114;-71
2023/06/07 02:10:07;;;;;;;15.68;8.38;;;;;;;;;;5061024;28;25162;-71
2023/06/07 02:12:33;;;;;;;24.13;8.15;;;;;;;;;;5060779;28;25081;-71
2023/06/07 02:15:01;;;;;;;14.80;7.57;;;;;;;;;;5060561;28;25055;-71
2023/06/07 02:17:28;;;;;;;11.82;7.53;;;;;;;;;;5061204;28;25128;-72
2023/06/07 02:19:54;;;;;;;18.45;9.27;;;;;;;;;;5065421;28;25073;-73
2023/06/07 02:22:20;;;;;;;18.27;8.13;;;;;;;;;;5041992;28;25054;-72
2023/06/07 02:24:47;;;;;;;22.95;8.93;;;;;;;;;;5059826;28;25057;-73
2023/06/07 02:27:13;;;;;;;17.77;8.93;;;;;;;;;;5059596;28;25149;-72
2023/06/07 02:29:39;;;;;;;20.30;6.93;;;;;;;;;;5060266;28;25139;-73
2023/06/07 02:32:05;;;;;;;20.60;7.82;;;;;;;;;;5059099;28;25137;-72
2023/06/07 02:34:34;;;;;;;19.08;8.07;;;;;;;;;;5059680;28;25134;-73
2023/06/07 02:37:00;;;;;;;21.33;7.45;;;;;;;;;;5060537;28;25068;-72
2023/06/07 02:39:27;;;;;;;19.48;7.30;;;;;;;;;;5059542;28;25075;-71
2023/06/07 02:41:52;;;;;;;15.70;7.68;;;;;;;;;;5060792;28;25060;-73
2023/06/07 02:44:18;;;;;;;18.17;7.57;;;;;;;;;;5058947;28;25070;-71
2023/06/07 02:46:45;;;;;;;25.58;7.15;;;;;;;;;;5059622;28;25080;-71
2023/06/07 02:49:11;;;;;;;24.25;7.28;;;;;;;;;;5060052;28;25181;-72
2023/06/07 02:51:38;;;;;;;18.10;7.32;;;;;;;;;;5047582;28;25140;-73
2023/06/07 02:54:04;;;;;;;12.20;7.18;;;;;;;;;;5063559;28;25167;-71
2023/06/07 02:56:32;;;;;;;12.93;6.45;;;;;;;;;;5058679;28;25046;-73
2023/06/07 02:58:58;;;;;;;16.80;7.03;;;;;;;;;;5061421;28;25059;-72
2023/06/07 03:01:27;;;;;;;15.93;7.43;;;;;;;;;;5057861;28;25066;-73
2023/06/07 03:03:53;;;;;;;18.05;7.18;;;;;;;;;;5055308;28;25074;-71
2023/06/07 03:06:19;;;;;;;16.02;6.57;;;;;;;;;;5059238;28;25083;-75
2023/06/07 03:08:45;;;;;;;17.60;6.47;;;;;;;;;;5059305;28;25054;-73
2023/06/07 03:11:11;;;;;;;13.73;6.57;;;;;;;;;;5058938;28;25056;-72
2023/06/07 03:13:37;;;;;;;19.35;8.20;;;;;;;;;;5060823;28;25090;-72
2023/06/07 03:16:03;;;;;;;14.88;7.03;;;;;;;;;;5059497;28;25054;-72
2023/06/07 03:18:29;;;;;;;15.57;7.10;;;;;;;;;;5059958;28;25087;-72
2023/06/07 03:20:55;;;;;;;11.75;6.78;;;;;;;;;;5062215;28;25063;-72
2023/06/07 03:23:21;;;;;;;16.55;7.50;;;;;;;;;;5058485;28;25080;-75
2023/06/07 03:25:48;;;;;;;14.45;6.78;;;;;;;;;;5059448;28;25083;-71
2023/06/07 03:28:14;;;;;;;20.70;7.85;;;;;;;;;;5060366;28;25053;-72
2023/06/07 03:30:41;;;;;;;15.48;6.75;;;;;;;;;;5059306;28;25050;-72
2023/06/07 03:33:07;;;;;;;11.95;5.97;;;;;;;;;;5058259;28;25060;-73
2023/06/07 03:35:33;;;;;;;14.98;6.85;;;;;;;;;;5060088;28;25044;-72
2023/06/07 03:37:59;;;;;;;16.60;7.18;;;;;;;;;;5057752;28;25054;-74
2023/06/07 03:40:25;;;;;;;17.00;7.07;;;;;;;;;;5058404;28;25083;-72
2023/06/07 03:42:51;;;;;;;10.40;5.90;;;;;;;;;;5057238;28;25050;-72
2023/06/07 03:45:17;;;;;;;21.63;6.55;;;;;;;;;;5059734;28;25072;-71
2023/06/07 03:47:43;;;;;;;13.70;7.05;;;;;;;;;;5058040;28;25075;-72
2023/06/07 03:50:09;;;;;;;15.98;6.80;;;;;;;;;;5059298;28;25059;-72
2023/06/07 03:52:35;;;;;;;16.85;7.25;;;;;;;;;;5056187;28;25152;-73
2023/06/07 03:55:02;;;;;;;14.73;7.57;;;;;;;;;;5057942;28;25183;-71
2023/06/07 03:57:28;;;;;;;21.33;6.50;;;;;;;;;;5058463;28;25132;-75
2023/06/07 03:59:53;;;;;;;27.77;7.85;;;;;;;;;;5060522;28;25055;-73
2023/06/07 04:02:19;;;;;;;12.98;6.35;;;;;;;;;;5058347;28;25052;-72
2023/06/07 04:04:45;;;;;;;19.27;7.60;;;;;;;;;;5061721;28;25057;-71
2023/06/07 04:07:11;;;;;;;17.67;6.05;;;;;;;;;;5064277;28;25069;-73
2023/06/07 04:09:39;;;;;;;19.55;7.43;;;;;;;;;;5062339;28;25081;-73
2023/06/07 04:12:06;;;;;;;16.08;6.78;;;;;;;;;;5063303;28;25064;-72
2023/06/07 04:14:32;;;;;;;15.13;5.82;;;;;;;;;;5062024;28;25080;-72
2023/06/07 04:16:58;;;;;;;18.20;6.88;;;;;;;;;;5064924;28;25090;-72
2023/06/07 04:19:24;;;;;;;14.10;5.68;;;;;;;;;;5061694;28;25073;-71
2023/06/07 04:21:50;;;;;;;17.00;6.13;;;;;;;;;;5059139;28;25058;-74
2023/06/07 04:24:16;;;;;;;17.85;6.85;;;;;;;;;;5049409;28;25081;-71
2023/06/07 04:26:42;;;;;;;17.05;6.30;;;;;;;;;;5063149;28;25073;-71
2023/06/07 04:29:08;;;;;;;13.20;6.32;;;;;;;;;;5049669;28;25077;-70
2023/06/07 04:31:34;;;;;;;17.95;6.45;;;;;;;;;;5042582;28;25084;-74
2023/06/07 04:34:01;;;;;;;20.88;6.97;;;;;;;;;;5044435;28;25054;-74
2023/06/07 04:36:30;;;;;;;15.38;6.18;;;;;;;;;;5044853;28;25068;-75
2023/06/07 04:38:56;;;;;;;16.65;6.38;;;;;;;;;;5047015;28;25052;-77
2023/06/07 04:41:30;;;;;;;18.05;6.43;;;;;;;;;;5044425;28;25143;-73
2023/06/07 04:43:56;;;;;;;17.45;6.43;;;;;;;;;;5060376;28;25054;-77
2023/06/07 04:46:22;;;;;;;10.98;6.13;;;;;;;;;;5062441;28;25105;-73
2023/06/07 04:48:48;;;;;;;13.90;7.75;;;;;;;;;;5049504;28;25085;-73
2023/06/07 04:51:18;;;;;;;16.25;6.07;;;;;;;;;;5047473;28;25060;-73
2023/06/07 04:53:44;;;;;;;24.00;6.63;;;;;;;;;;5065243;28;25151;-76
2023/06/07 04:56:11;;;;;;;13.05;5.93;;;;;;;;;;5062611;28;25137;-74
2023/06/07 04:58:39;;;;;;;16.48;6.30;;;;;;;;;;5063134;28;25051;-72
2023/06/07 05:01:05;;;;;;;18.15;6.78;;;;;;;;;;5072534;28;25098;-76
2023/06/07 05:03:31;;;;;;;27.77;7.10;;;;;;;;;;5064880;28;25101;-72
2023/06/07 05:06:00;;;;;;;18.25;6.63;;;;;;;;;;5064833;28;25083;-71
2023/06/07 05:08:26;;;;;;;15.73;6.50;;;;;;;;;;5062173;28;25054;-76
2023/06/07 05:10:53;;;;;;;17.65;6.43;;;;;;;;;;5079397;28;25070;-75
2023/06/07 05:13:19;;;;;;;16.92;6.05;;;;;;;;;;5080204;28;25086;-72
2023/06/07 05:15:44;;;;;;;19.35;6.90;;;;;;;;;;5076835;28;25086;-73
2023/06/07 05:18:12;;;;;;;16.45;5.78;;;;;;;;;;5063394;28;25140;-73
2023/06/07 05:20:38;;;;;;;19.75;7.55;;;;;;;;;;5064514;28;25046;-73
2023/06/07 05:23:04;;;;;;;16.40;7.57;;;;;;;;;;5071998;28;25074;-71
2023/06/07 05:25:31;;;;;;;16.00;5.53;;;;;;;;;;5075669;28;25065;-72
2023/06/07 05:27:57;;;;;;;17.75;7.00;;;;;;;;;;5075132;28;25065;-72
2023/06/07 05:30:24;;;;;;;16.50;6.70;;;;;;;;;;5070241;28;25077;-74
2023/06/07 05:32:51;;;;;;;15.00;6.53;;;;;;;;;;5067198;28;25290;-72
2023/06/07 05:35:18;;;;;;;18.98;6.68;;;;;;;;;;5066056;28;25100;-72
2023/06/07 05:37:45;;;;;;;18.67;7.25;;;;;;;;;;5061166;28;25055;-72
2023/06/07 05:40:11;;;;;;;16.05;6.07;;;;;;;;;;5061225;28;25059;-72
2023/06/07 05:42:38;;;;;;;17.70;6.47;;;;;;;;;;5046206;28;25058;-72
2023/06/07 05:45:06;;;;;;;21.67;7.00;;;;;;;;;;5052963;28;25170;-73
2023/06/07 05:47:32;;;;;;;13.82;5.63;;;;;;;;;;5060128;28;25118;-74
2023/06/07 05:49:57;;;;;;;14.02;5.57;;;;;;;;;;5060647;28;25070;-71
2023/06/07 05:52:23;;;;;;;19.15;6.32;;;;;;;;;;5059624;28;25075;-72
2023/06/07 05:54:51;;;;;;;22.52;5.97;;;;;;;;;;5059613;28;25066;-71
2023/06/07 05:57:17;;;;;;;19.58;6.15;;;;;;;;;;5058496;28;25085;-71
2023/06/07 05:59:43;;;;;;;21.25;6.03;;;;;;;;;;5064301;28;25087;-72
2023/06/07 06:02:10;;;;;;;16.25;5.72;;;;;;;;;;5059861;28;25071;-71
2023/06/07 06:04:36;;;;;;;14.82;6.10;;;;;;;;;;5059827;28;25052;-72
2023/06/07 06:07:02;;;;;;;18.30;6.60;;;;;;;;;;5059381;28;25075;-71
2023/06/07 06:09:29;;;;;;;17.67;6.30;;;;;;;;;;5059498;28;25079;-74
2023/06/07 06:11:55;;;;;;;15.52;6.63;;;;;;;;;;5060190;28;25121;-73
2023/06/07 06:14:21;;;;;;;17.75;6.20;;;;;;;;;;5060682;28;25075;-74
2023/06/07 06:16:47;;;;;;;17.23;5.88;;;;;;;;;;5059635;28;25065;-73
2023/06/07 06:19:13;;;;;;;22.50;6.28;;;;;;;;;;5057885;28;25099;-70
2023/06/07 06:21:39;;;;;;;13.70;6.05;;;;;;;;;;5057566;28;25056;-72
2023/06/07 06:24:06;;;;;;;15.50;6.78;;;;;;;;;;5057419;28;25130;-75
2023/06/07 06:26:32;;;;;;;17.73;6.32;;;;;;;;;;5058852;28;25080;-74
2023/06/07 06:28:58;;;;;;;20.80;5.80;;;;;;;;;;5058266;28;25067;-72
2023/06/07 06:31:25;;;;;;;20.35;6.43;;;;;;;;;;5059174;28;25049;-72
2023/06/07 06:33:51;;;;;;;24.55;8.27;;;;;;;;;;5057192;28;25069;-72
2023/06/07 06:36:17;;;;;;;16.77;6.15;;;;;;;;;;5059379;28;25147;-73
2023/06/07 06:38:43;;;;;;;14.48;6.25;;;;;;;;;;5056221;28;25098;-70
2023/06/07 06:41:10;;;;;;;20.83;6.47;;;;;;;;;;5056100;28;25065;-72
2023/06/07 06:43:36;;;;;;;16.98;6.10;;;;;;;;;;5054839;28;25096;-72
2023/06/07 06:46:02;;;;;;;17.63;5.75;;;;;;;;;;5054996;28;25060;-72
2023/06/07 06:48:28;;;;;;;20.05;7.15;;;;;;;;;;5052468;28;25073;-72
2023/06/07 06:50:54;;;;;;;19.92;6.45;;;;;;;;;;5055135;28;25073;-72
2023/06/07 06:53:20;;;;;;;15.45;5.60;;;;;;;;;;5051415;28;25109;-72
2023/06/07 06:55:46;;;;;;;17.25;6.35;;;;;;;;;;5051983;28;25092;-73
2023/06/07 06:58:12;;;;;;;15.32;6.53;;;;;;;;;;5051059;28;25052;-73
2023/06/07 07:00:40;;;;;;;17.52;5.10;;;;;;;;;;5034912;28;25072;-72
2023/06/07 07:03:06;;;;;;;30.02;8.25;;;;;;;;;;5053428;28;25145;-72
2023/06/07 07:05:32;;;;;;;15.88;5.85;;;;;;;;;;5052236;28;25084;-71
2023/06/07 07:07:58;;;;;;;13.50;5.45;;;;;;;;;;5053345;28;25187;-74
2023/06/07 07:10:24;;;;;;;13.75;6.13;;;;;;;;;;5051705;28;25105;-74
2023/06/07 07:12:50;;;;;;;17.63;5.55;;;;;;;;;;5051494;28;25070;-74
2023/06/07 07:15:16;;;;;;;14.73;5.75;;;;;;;;;;5052463;28;25079;-71
2023/06/07 07:17:46;;;;;;;19.52;6.60;;;;;;;;;;5052259;28;25149;-72
2023/06/07 07:20:12;;;;;;;15.30;6.20;;;;;;;;;;5054179;28;25088;-73
2023/06/07 07:22:38;;;;;;;16.35;5.28;;;;;;;;;;5050270;28;25068;-72
2023/06/07 07:25:05;;;;;;;15.82;6.25;;;;;;;;;;5051917;28;25071;-71
2023/06/07 07:27:31;;;;;;;18.33;6.53;;;;;;;;;;5052201;28;25078;-72
2023/06/07 07:29:57;;;;;;;16.40;5.43;;;;;;;;;;5052368;28;25061;-72
2023/06/07 07:32:23;;;;;;;16.08;5.93;;;;;;;;;;5050372;28;25143;-70
2023/06/07 07:34:49;;;;;;;13.02;5.05;;;;;;;;;;5052500;28;25132;-72
2023/06/07 07:37:15;;;;;;;11.25;5.38;;;;;;;;;;5053219;28;25067;-72
2023/06/07 07:39:41;;;;;;;14.43;5.18;;;;;;;;;;5055495;28;25157;-71
2023/06/07 07:42:07;;;;;;;17.02;5.10;;;;;;;;;;5053525;28;25052;-71
2023/06/07 07:44:34;;;;;;;16.27;5.40;;;;;;;;;;5055433;28;25065;-73
2023/06/07 07:47:00;;;;;;;20.40;4.90;;;;;;;;;;5058321;28;25064;-72
2023/06/07 07:49:26;;;;;;;13.52;5.45;;;;;;;;;;5056689;28;25067;-72
2023/06/07 07:51:52;;;;;;;19.40;5.20;;;;;;;;;;5055642;28;25074;-72
2023/06/07 07:54:18;;;;;;;12.55;5.47;;;;;;;;;;5054345;28;25057;-73
2023/06/07 07:56:44;;;;;;;12.40;5.10;;;;;;;;;;5056548;28;25054;-71
2023/06/07 07:59:10;;;;;;;14.27;5.43;;;;;;;;;;5054064;28;25046;-70
2023/06/07 08:01:37;;;;;;;13.80;4.72;;;;;;;;;;5056962;28;25076;-73
2023/06/07 08:04:03;;;;;;;17.58;5.05;;;;;;;;;;5055669;28;25141;-74
2023/06/07 08:06:29;;;;;;;24.38;6.78;;;;;;;;;;5056261;28;25063;-70
2023/06/07 08:08:56;;;;;;;13.93;4.85;;;;;;;;;;5054665;28;25051;-73
2023/06/07 08:11:21;;;;;;;17.23;4.85;;;;;;;;;;5055238;28;25063;-71
2023/06/07 08:13:47;;;;;;;16.55;5.72;;;;;;;;;;5054464;28;25064;-74
2023/06/07 08:16:13;;;;;;;14.23;5.15;;;;;;;;;;5056239;28;25069;-72
2023/06/07 08:18:39;;;;;;;16.88;5.75;;;;;;;;;;5055474;28;25081;-72
2023/06/07 08:21:06;;;;;;;13.13;4.75;;;;;;;;;;5056330;28;25131;-72
2023/06/07 08:23:32;;;;;;;10.48;4.32;;;;;;;;;;5055210;28;25054;-72
2023/06/07 08:25:58;;;;;;;19.67;5.10;;;;;;;;;;5056752;28;25114;-71
2023/06/07 08:28:25;;;;;;;9.48;3.95;;;;;;;;;;5054831;28;25100;-73
2023/06/07 08:30:51;;;;;;;12.30;4.50;;;;;;;;;;5056216;28;25128;-73
2023/06/07 08:33:16;;;;;;;9.80;4.78;;;;;;;;;;5054858;28;25145;-73
2023/06/07 08:35:42;;;;;;;9.68;4.53;;;;;;;;;;5055070;28;25212;-72
2023/06/07 08:38:08;;;;;;;14.95;4.65;;;;;;;;;;5053315;28;25165;-71
2023/06/07 08:40:38;;;;;;;14.35;4.75;;;;;;;;;;5041366;28;25155;-74
2023/06/07 08:43:05;;;;;;;11.80;5.13;;;;;;;;;;5054715;28;25070;-75
2023/06/07 08:45:31;;;;;;;17.35;5.75;;;;;;;;;;5054666;28;25179;-74
2023/06/07 08:47:58;;;;;;;11.55;5.93;;;;;;;;;;5052236;28;25080;-73
2023/06/07 08:50:24;;;;;;;12.85;5.72;;;;;;;;;;5043906;28;25063;-73
2023/06/07 08:52:53;;;;;;;12.00;5.30;;;;;;;;;;5054745;28;25073;-72
2023/06/07 08:55:20;;;;;;;12.77;5.45;;;;;;;;;;5058360;28;25086;-76
2023/06/07 08:57:52;;;;;;;8.95;4.30;;;;;;;;;;5057066;28;25059;-75
2023/06/07 09:00:22;;;;;;;13.30;4.50;;;;;;;;;;5055934;28;25157;-72
2023/06/07 09:02:51;;;;;;;13.20;5.07;;;;;;;;;;5053713;28;25054;-74
2023/06/07 09:05:17;;;;;;;12.80;4.93;;;;;;;;;;5055045;28;25138;-74
2023/06/07 09:07:43;;;;;;;13.80;5.30;;;;;;;;;;5053457;28;25057;-73
2023/06/07 09:10:09;;;;;;;15.68;6.75;;;;;;;;;;5047739;28;25076;-74
2023/06/07 09:12:35;;;;;;;10.30;4.68;;;;;;;;;;5039925;28;25075;-75
2023/06/07 09:15:01;;;;;;;13.07;5.32;;;;;;;;;;5055162;28;25077;-74
2023/06/07 09:17:46;;;;;;;12.63;4.30;;;;;;;;;;5053987;28;25073;-76
2023/06/07 09:20:25;;;;;;;12.02;5.03;;;;;;;;;;5053996;28;25156;-74
2023/06/07 09:22:59;;;;;;;18.23;4.90;;;;;;;;;;5040675;28;25109;-73
2023/06/07 09:25:25;;;;;;;11.70;5.05;;;;;;;;;;5054867;28;25072;-76
2023/06/07 09:27:51;;;;;;;12.00;4.93;;;;;;;;;;5053077;28;25132;-75
2023/06/07 09:30:18;;;;;;;13.35;5.07;;;;;;;;;;5055724;28;25083;-73
2023/06/07 09:32:44;;;;;;;13.63;4.85;;;;;;;;;;5053326;28;25105;-74
2023/06/07 09:35:13;;;;;;;12.68;5.95;;;;;;;;;;5054244;28;25075;-73
2023/06/07 09:37:42;;;;;;;16.15;5.90;;;;;;;;;;5052668;28;25059;-73
2023/06/07 09:40:09;;;;;;;12.63;5.65;;;;;;;;;;5043729;28;25062;-73
2023/06/07 09:42:34;;;;;;;12.00;4.97;;;;;;;;;;5053814;28;25079;-76
2023/06/07 09:45:16;;;;;;;12.35;5.57;;;;;;;;;;5054443;28;25151;-74
2023/06/07 09:47:42;;;;;;;13.27;5.90;;;;;;;;;;5051056;28;25107;-73
2023/06/07 09:50:09;;;;;;;17.02;5.40;;;;;;;;;;5054473;28;25068;-73
2023/06/07 09:52:35;;;;;;;11.93;5.20;;;;;;;;;;5052576;28;25073;-74
2023/06/07 09:55:05;;;;;;;10.23;5.50;;;;;;;;;;5054433;28;25067;-71
2023/06/07 09:57:32;;;;;;;12.45;5.25;;;;;;;;;;5058350;28;25164;-72
2023/06/07 10:00:00;;;;;;;11.50;5.38;;;;;;;;;;5058159;28;25058;-72
2023/06/07 10:02:27;;;;;;;13.93;5.22;;;;;;;;;;5056543;28;25075;-76
2023/06/07 10:04:55;;;;;;;12.02;5.72;;;;;;;;;;5058841;28;25135;-73
2023/06/07 10:07:22;;;;;;;12.40;4.97;;;;;;;;;;5052670;28;25114;-72
2023/06/07 10:09:53;;;;;;;9.00;4.72;;;;;;;;;;5054987;28;25066;-73
2023/06/07 10:12:22;;;;;;;10.73;5.07;;;;;;;;;;5053410;28;25063;-75
2023/06/07 10:14:49;;;;;;;7.45;4.57;;;;;;;;;;5057015;28;25157;-75
2023/06/07 10:17:16;;;;;;;12.57;5.28;;;;;;;;;;5053719;28;25065;-74
2023/06/07 10:19:46;;;;;;;13.30;5.93;;;;;;;;;;5054294;28;25137;-72
2023/06/07 10:22:21;;;;;;;13.35;5.70;;;;;;;;;;5051908;28;25074;-74
2023/06/07 10:24:51;;;;;;;10.70;5.95;;;;;;;;;;5054229;28;25069;-72
2023/06/07 10:27:20;;;;;;;13.15;5.53;;;;;;;;;;5040005;28;25099;-74
2023/06/07 10:30:06;;;;;;;14.15;5.07;;;;;;;;;;5053993;28;25054;-75
2023/06/07 10:32:37;;;;;;;10.73;5.30;;;;;;;;;;5054937;28;25091;-73
2023/06/07 10:35:05;;;;;;;12.37;6.37;;;;;;;;;;5059500;28;25147;-73
2023/06/07 10:37:33;;;;;;;14.23;5.60;;;;;;;;;;5054296;28;25156;-72
2023/06/07 10:40:05;;;;;;;15.60;5.60;;;;;;;;;;5055457;28;25052;-73
2023/06/07 10:42:31;;;;;;;12.73;4.90;;;;;;;;;;5056526;28;25190;-75
2023/06/07 10:44:57;;;;;;;9.30;5.22;;;;;;;;;;5055372;28;25053;-75
2023/06/07 10:47:23;;;;;;;11.98;5.30;;;;;;;;;;5053250;28;25071;-74
2023/06/07 10:49:49;;;;;;;13.23;5.18;;;;;;;;;;5057250;28;25044;-73
2023/06/07 10:52:15;;;;;;;9.82;5.03;;;;;;;;;;5056356;28;25059;-76
2023/06/07 10:54:42;;;;;;;9.45;5.38;;;;;;;;;;5074934;28;25059;-74
2023/06/07 10:57:08;;;;;;;12.35;5.03;;;;;;;;;;5073623;28;25071;-74
2023/06/07 10:59:35;;;;;;;13.45;5.00;;;;;;;;;;5075617;28;25063;-73
2023/06/07 11:02:20;;;;;;;14.23;5.75;;;;;;;;;;5061372;28;25067;-72
2023/06/07 11:04:59;;;;;;;13.10;5.53;;;;;;;;;;5060554;28;25086;-73
2023/06/07 11:07:30;;;;;;;9.52;5.03;;;;;;;;;;5075481;28;25059;-74
2023/06/07 11:10:05;;;;;;;16.45;5.03;;;;;;;;;;5077994;28;25065;-73
2023/06/07 11:12:46;;;;;;;12.35;5.38;;;;;;;;;;5080507;28;25069;-77
2023/06/07 11:15:20;;;;;;;11.10;4.93;;;;;;;;;;5063197;28;25059;-75
2023/06/07 11:18:12;;;;;;;12.07;5.22;;;;;;;;;;5056510;28;25060;-72
2023/06/07 11:20:38;;;;;;;12.43;5.80;;;;;;;;;;5056924;28;25073;-72
2023/06/07 11:23:20;;;;;;;12.10;5.07;;;;;;;;;;5056438;28;25054;-74
2023/06/07 11:25:46;;;;;;;11.18;5.47;;;;;;;;;;5055512;28;25141;-72
2023/06/07 11:28:13;;;;;;;12.95;6.20;;;;;;;;;;5054203;28;25098;-73
2023/06/07 11:30:42;;;;;;;11.95;5.45;;;;;;;;;;5056327;28;25067;-72
2023/06/07 11:33:09;;;;;;;13.00;6.00;;;;;;;;;;5054643;28;25084;-73
2023/06/07 11:35:35;;;;;;;14.82;5.32;;;;;;;;;;5059616;28;25069;-74
2023/06/07 11:38:04;;;;;;;10.18;4.88;;;;;;;;;;5063919;28;25069;-72
2023/06/07 11:40:30;;;;;;;13.63;6.00;;;;;;;;;;5062844;28;25127;-72
2023/06/07 11:42:56;;;;;;;13.77;4.93;;;;;;;;;;5056744;28;25065;-72
2023/06/07 11:45:22;;;;;;;12.95;4.88;;;;;;;;;;5060593;28;25068;-73
2023/06/07 11:47:48;;;;;;;11.75;5.70;;;;;;;;;;5056526;28;25051;-74
2023/06/07 11:50:15;;;;;;;13.50;5.30;;;;;;;;;;5059466;28;25067;-73
2023/06/07 11:52:41;;;;;;;14.30;5.35;;;;;;;;;;5058345;28;25110;-72
2023/06/07 11:55:10;;;;;;;10.40;5.05;;;;;;;;;;5058707;28;25078;-74
2023/06/07 11:57:41;;;;;;;11.95;5.03;;;;;;;;;;5058989;28;25073;-73
2023/06/07 12:00:17;;;;;;;13.15;5.32;;;;;;;;;;5059527;28;25072;-73
2023/06/07 12:02:44;;;;;;;9.77;5.38;;;;;;;;;;5058581;28;25084;-72
2023/06/07 12:05:10;;;;;;;12.23;5.55;;;;;;;;;;5058575;28;25099;-72
2023/06/07 12:07:36;;;;;;;16.63;5.38;;;;;;;;;;5057879;28;25052;-74
2023/06/07 12:10:05;;;;;;;13.48;5.43;;;;;;;;;;5060770;28;25058;-74
2023/06/07 12:12:31;;;;;;;17.88;5.28;;;;;;;;;;5062440;28;25055;-72
2023/06/07 12:15:01;;;;;;;18.63;6.25;;;;;;;;;;5050326;28;25168;-72
2023/06/07 12:17:35;;;;;;;11.13;5.38;;;;;;;;;;5061743;28;25073;-74
2023/06/07 12:20:14;;;;;;;8.95;4.60;;;;;;;;;;5049668;28;25056;-72
2023/06/07 12:22:40;;;;;;;9.80;4.80;;;;;;;;;;5060021;28;25055;-72
2023/06/07 12:25:10;;;;;;;9.57;4.68;;;;;;;;;;5061194;28;25064;-72
2023/06/07 12:27:37;;;;;;;14.15;5.47;;;;;;;;;;5060657;28;25125;-72
2023/06/07 12:30:05;;;;;;;18.27;5.50;;;;;;;;;;5062859;28;25058;-73
2023/06/07 12:32:31;;;;;;;15.88;4.85;;;;;;;;;;5061529;28;25056;-74
2023/06/07 12:35:01;;;;;;;12.68;6.40;;;;;;;;;;5062242;28;25072;-74
2023/06/07 12:37:28;;;;;;;23.23;5.68;;;;;;;;;;5050394;28;25079;-74
2023/06/07 12:39:54;;;;;;;17.77;5.50;;;;;;;;;;5051548;28;25134;-73
2023/06/07 12:42:20;;;;;;;15.70;5.43;;;;;;;;;;5061198;28;25071;-75
2023/06/07 12:44:47;;;;;;;18.02;5.72;;;;;;;;;;5062295;28;25141;-74
2023/06/07 12:47:13;;;;;;;15.45;6.13;;;;;;;;;;5053092;28;25143;-74
2023/06/07 12:49:42;;;;;;;21.83;5.88;;;;;;;;;;5057160;28;25098;-76
2023/06/07 12:52:08;;;;;;;12.63;5.40;;;;;;;;;;5052291;28;25072;-75
2023/06/07 12:54:34;;;;;;;12.93;5.85;;;;;;;;;;5056367;28;25105;-73
2023/06/07 12:57:00;;;;;;;16.83;6.15;;;;;;;;;;5055348;28;25074;-73
2023/06/07 12:59:26;;;;;;;10.45;5.13;;;;;;;;;;5053934;28;25073;-74
2023/06/07 13:01:52;;;;;;;8.80;5.63;;;;;;;;;;5055547;28;25063;-72
2023/06/07 13:04:18;;;;;;;11.50;5.60;;;;;;;;;;5058776;28;25064;-75
2023/06/07 13:06:44;;;;;;;10.98;5.25;;;;;;;;;;5053491;28;25068;-72
2023/06/07 13:09:10;;;;;;;11.63;5.40;;;;;;;;;;5055689;28;25069;-73
2023/06/07 13:11:37;;;;;;;9.73;4.93;;;;;;;;;;5054407;28;25045;-72
2023/06/07 13:14:03;;;;;;;10.20;5.45;;;;;;;;;;5040118;28;25117;-75
2023/06/07 13:16:32;;;;;;;11.52;5.28;;;;;;;;;;5056077;28;25069;-74
2023/06/07 13:18:58;;;;;;;12.38;5.07;;;;;;;;;;5041145;28;25136;-75
2023/06/07 13:21:25;;;;;;;8.60;4.78;;;;;;;;;;5057064;28;25076;-74
2023/06/07 13:23:51;;;;;;;11.95;5.20;;;;;;;;;;5056372;28;25063;-74
2023/06/07 13:26:17;;;;;;;13.43;5.47;;;;;;;;;;5061407;28;25059;-73
2023/06/07 13:28:45;;;;;;;11.75;5.25;;;;;;;;;;5055930;28;25067;-75
2023/06/07 13:31:11;;;;;;;12.90;5.28;;;;;;;;;;5056363;28;26194;-74
2023/06/07 13:33:37;;;;;;;11.05;5.32;;;;;;;;;;5054152;28;25084;-79
2023/06/07 13:36:03;;;;;;;11.73;5.60;;;;;;;;;;5057089;28;25097;-74
2023/06/07 13:38:29;;;;;;;9.50;4.40;;;;;;;;;;5053014;28;25059;-74
2023/06/07 13:40:55;;;;;;;12.02;5.03;;;;;;;;;;5054172;28;25045;-74
2023/06/07 13:43:21;;;;;;;13.93;6.00;;;;;;;;;;5053849;28;25161;-74
2023/06/07 13:45:47;;;;;;;12.85;5.15;;;;;;;;;;5052251;28;25126;-75
2023/06/07 13:48:13;;;;;;;16.88;6.13;;;;;;;;;;5051836;28;25094;-74
2023/06/07 13:50:48;;;;;;;10.15;4.88;;;;;;;;;;5058068;28;25088;-72
2023/06/07 13:53:17;;;;;;;9.70;5.13;;;;;;;;;;5053416;28;25152;-73
2023/06/07 13:55:43;;;;;;;12.85;5.22;;;;;;;;;;5055820;28;25048;-74
2023/06/07 13:58:09;;;;;;;9.80;5.00;;;;;;;;;;5054390;28;25075;-74
2023/06/07 14:00:35;;;;;;;13.38;5.20;;;;;;;;;;5056331;28;25085;-74
2023/06/07 14:03:01;;;;;;;14.88;5.35;;;;;;;;;;5055620;28;25061;-74
2023/06/07 14:05:27;;;;;;;7.30;4.43;;;;;;;;;;5042668;28;25059;-73
2023/06/07 14:07:52;;;;;;;12.15;5.63;;;;;;;;;;5051391;28;25069;-76
2023/06/07 14:10:18;;;;;;;15.45;5.50;;;;;;;;;;5054822;28;25059;-72
2023/06/07 14:12:44;;;;;;;23.40;5.90;;;;;;;;;;5054218;28;25072;-72
2023/06/07 14:15:11;;;;;;;11.85;4.80;;;;;;;;;;5053306;28;25074;-74
2023/06/07 14:17:37;;;;;;;15.45;6.22;;;;;;;;;;5053136;28;25131;-72
2023/06/07 14:20:03;;;;;;;11.48;4.85;;;;;;;;;;5052782;28;25079;-72
2023/06/07 14:22:29;;;;;;;16.00;5.22;;;;;;;;;;5051754;28;25132;-71
2023/06/07 14:24:55;;;;;;;16.08;5.65;;;;;;;;;;5054181;28;25056;-72
2023/06/07 14:27:21;;;;;;;15.43;6.60;;;;;;;;;;5053404;28;25080;-73
2023/06/07 14:29:47;;;;;;;10.05;5.50;;;;;;;;;;5055621;28;25063;-72
2023/06/07 14:32:13;;;;;;;12.15;4.78;;;;;;;;;;5056060;28;25058;-73